Latest Weather Observations for Toowoomba

IDQ60901

Issued at 2:41 pm EST Tuesday 17 January 2017 (issued every 10 minutes, with the page automatically refreshed every 10 minutes)

About weather observations | Map of Brisbane area stations | Latest observations for Brisbane area | Other Formats
Station Details ID: 041529 Name: TOOWOOMBA AIRPORT Lat: -27.54 Lon: 151.91 Height: 640.9 m
Data from the previous 72 hours. | See also: Recent months at Toowoomba
Date/Time
EST
Temp
°C
App
Temp
°C
Dew
Point
°C
Rel
Hum
%
Delta-T
°C
Wind Press
QNH
hPa
Press
MSL
hPa
Rain since
9am
mm
Dir  Spd
km/h
Gust
km/h
Spd
kts
Gust
kts
17/02:30pm 29.5 29.3 16.7 46 8.2 E 13 24 7 13 1018.6 1014.9 0.0
17/02:00pm 29.2 28.2 16.7 46 8.0 E 17 26 9 14 1018.8 1015.1 0.0
17/01:30pm 29.4 29.2 16.6 46 8.2 SE 13 24 7 13 1019.0 1015.3 0.0
17/01:00pm 28.5 28.3 16.7 48 7.5 E 13 24 7 13 1019.3 1015.6 0.0
17/12:30pm 29.0 29.1 17.5 49 7.5 ENE 13 20 7 11 1019.8 1016.2 0.0
17/12:00pm 28.3 28.2 16.9 50 7.3 E 13 19 7 10 1020.3 1016.6 0.0
17/11:30am 27.7 28.6 16.6 50 7.1 NE 7 17 4 9 1020.7 1017.0 0.0
17/11:00am 26.8 27.5 17.0 55 6.3 NE 9 19 5 10 1021.0 1017.4 0.0
17/10:30am 25.0 25.8 17.2 62 5.0 NNE 9 15 5 8 1021.3 1017.7 0.0
17/10:00am 24.9 25.1 17.6 64 4.7 NE 13 19 7 10 1021.4 1017.8 0.0
17/09:30am 25.0 24.8 17.5 63 4.8 E 15 19 8 10 1021.4 1017.8 0.0
17/09:00am 24.3 23.7 17.5 66 4.3 ENE 17 22 9 12 1021.4 1017.8 0.0
17/08:30am 23.6 23.7 18.3 72 3.4 ENE 15 20 8 11 1021.5 1017.9 0.0
17/08:18am 22.9 23.3 18.9 78 2.6 NE 15 19 8 10 1021.6 1018.0 0.0
17/08:00am 21.4 21.4 18.0 81 2.2 NE 15 20 8 11 1021.6 1018.0 0.0
17/07:30am 21.3 21.2 18.7 85 1.7 ENE 17 22 9 12 1021.4 1017.8 0.0
17/07:00am 20.6 20.6 18.9 90 1.1 NE 17 24 9 13 1021.2 1017.6 0.0
17/06:30am 21.1 20.8 19.2 89 1.2 ENE 19 30 10 16 1020.7 1017.0 0.0
17/06:14am 20.2 19.7 19.2 94 0.6 ENE 20 28 11 15 1020.5 1016.8 0.0
17/06:00am 19.7 19.2 18.7 94 0.6 ENE 19 24 10 13 1020.4 1016.7 0.0
17/05:30am 19.7 19.1 18.4 92 0.8 ENE 19 28 10 15 1020.1 1016.5 0.0
17/05:15am 19.7 18.9 18.5 93 0.8 E 20 24 11 13 1020.0 1016.4 0.0
17/05:00am 19.7 18.7 18.9 95 0.5 E 22 30 12 16 1019.8 1016.2 0.0
17/04:30am 19.8 18.5 19.1 96 0.5 E 24 33 13 18 1019.3 1015.6 0.0
17/04:00am 19.8 17.8 19.1 96 0.5 E 28 35 15 19 1018.9 1015.2 0.0
17/03:33am 20.0 18.8 19.2 95 0.5 E 24 33 13 18 1018.9 1015.2 0.0
17/03:30am 20.0 18.8 19.2 95 0.5 E 24 33 13 18 1018.9 1015.2 0.0
17/03:01am 20.0 18.4 19.2 95 0.5 E 26 35 14 19 1018.8 1015.1 0.0
17/03:00am 19.9 18.3 19.1 95 0.5 E 26 35 14 19 1018.8 1015.1 0.0
17/02:30am 20.2 18.7 19.5 96 0.5 E 26 32 14 17 1018.9 1015.2 0.0
17/02:00am 20.4 19.3 19.4 94 0.6 ENE 24 32 13 17 1019.0 1015.3 0.0
17/01:30am 20.3 18.6 19.8 97 0.3 E 28 35 15 19 1019.1 1015.4 0.0
17/01:00am 20.4 17.9 19.7 96 0.5 E 32 41 17 22 1019.0 1015.3 0.0
17/12:30am 20.4 17.7 19.7 96 0.5 E 33 44 18 24 1019.0 1015.3 0.0
17/12:00am 20.7 18.8 20.2 97 0.3 E 30 39 16 21 1019.2 1015.5 0.0
 
Date/Time
EST
Temp
°C
App
Temp
°C
Dew
Point
°C
Rel
Hum
%
Delta-T
°C
Wind Press
QNH
hPa
Press
MSL
hPa
Rain since
9am
mm
Dir  Spd
km/h
Gust
km/h
Spd
kts
Gust
kts
16/11:30pm 20.6 18.2 19.9 96 0.5 E 32 41 17 22 1019.5 1015.9 0.0
16/11:00pm 21.0 18.4 20.0 94 0.7 E 33 39 18 21 1019.7 1016.1 0.0
16/10:38pm 21.0 18.5 19.8 93 0.8 E 32 39 17 21 1019.8 1016.2 0.0
16/10:30pm 21.0 18.5 19.7 92 0.8 E 32 41 17 22 1019.8 1016.2 0.0
16/10:00pm 21.3 18.7 19.4 89 1.2 E 32 43 17 23 1019.8 1016.2 0.0
16/09:30pm 21.6 19.1 18.8 84 1.8 E 30 39 16 21 1019.9 1016.3 0.0
16/09:00pm 22.1 19.7 18.3 79 2.4 E 28 35 15 19 1019.8 1016.2 0.0
16/08:30pm 22.8 20.4 18.3 76 2.9 E 28 37 15 20 1019.7 1016.1 0.0
16/08:00pm 23.6 21.2 18.3 72 3.4 E 28 37 15 20 1019.5 1015.9 0.0
16/07:30pm 24.3 22.6 18.0 68 4.1 E 24 32 13 17 1019.4 1015.8 0.0
16/07:00pm 25.0 23.9 17.7 64 4.7 E 20 30 11 16 1019.1 1015.4 0.0
16/06:30pm 26.0 24.6 17.1 58 5.7 E 20 28 11 15 1018.8 1015.1 0.0
16/06:00pm 26.7 24.4 16.6 54 6.4 E 24 32 13 17 1018.4 1014.8 0.0
16/05:30pm 27.1 25.4 17.3 55 6.3 ENE 22 28 12 15 1018.0 1014.4 0.0
16/05:00pm 27.7 25.5 16.9 51 6.9 E 24 35 13 19 1017.7 1014.0 0.0
16/04:30pm 28.0 25.5 17.2 52 7.0 E 26 33 14 18 1017.3 1013.6 0.0
16/04:00pm 26.8 24.5 16.7 54 6.4 E 24 35 13 19 1017.2 1013.5 0.0
16/03:30pm 28.2 26.2 17.4 52 7.0 E 24 35 13 19 1017.3 1013.6 0.0
16/03:00pm 27.6 26.0 17.5 54 6.5 E 22 33 12 18 1017.4 1013.7 0.0
16/02:30pm 28.3 26.3 17.5 52 7.0 E 24 35 13 19 1017.5 1013.8 0.0
16/02:00pm 28.0 26.2 17.8 54 6.6 ENE 24 33 13 18 1017.7 1014.0 0.0
16/01:30pm 27.6 25.7 17.7 54 6.4 E 24 33 13 18 1017.8 1014.1 0.0
16/01:00pm 27.9 26.3 18.3 56 6.3 ENE 24 32 13 17 1017.9 1014.2 0.0
16/12:30pm 27.8 26.8 18.8 58 5.9 ENE 22 33 12 18 1018.0 1014.4 0.0
16/12:00pm 27.4 26.1 18.1 57 6.0 ENE 22 32 12 17 1018.3 1014.7 0.0
16/11:30am 26.3 24.9 17.9 60 5.4 ENE 22 32 12 17 1018.8 1015.1 0.0
16/11:00am 25.0 24.0 18.0 65 4.5 ENE 20 32 11 17 1019.0 1015.3 0.0
16/10:32am 25.2 24.4 20.0 73 3.5 ENE 24 35 13 19 1018.9 1015.2 0.0
16/10:30am 25.0 24.1 19.8 73 3.4 ENE 24 35 13 19 1019.0 1015.3 0.0
16/10:18am 24.2 23.0 19.3 74 3.2 E 24 35 13 19 1019.0 1015.3 0.0
16/10:00am 23.8 21.6 19.5 77 2.8 E 30 37 16 20 1018.9 1015.2 0.0
16/09:30am 23.2 21.2 19.2 78 2.6 E 28 35 15 19 1018.9 1015.2 0.0
16/09:27am 23.6 21.6 19.9 80 2.4 E 30 39 16 21 1018.8 1015.1 0.0
16/09:00am 22.6 20.9 19.9 85 1.8 ENE 28 35 15 19 1018.9 1015.2 1.8
16/08:30am 21.3 19.1 19.6 90 1.1 E 30 35 16 19 1018.7 1015.0 1.8
16/08:00am 21.0 20.1 19.8 93 0.8 E 24 33 13 18 1018.7 1015.0 1.8
16/07:30am 20.3 19.3 19.6 96 0.5 E 24 33 13 18 1018.3 1014.7 1.8
16/07:00am 20.1 20.3 19.4 96 0.5 E 17 22 9 12 1018.2 1014.6 1.8
16/06:30am 19.9 19.6 19.2 96 0.5 E 19 30 10 16 1017.9 1014.2 1.8
16/06:00am 19.6 18.6 18.9 96 0.4 E 22 28 12 15 1017.7 1014.0 1.8
16/05:46am 19.5 18.5 18.8 96 0.4 E 22 26 12 14 1017.5 1013.8 1.8
16/05:30am 19.3 18.7 18.8 97 0.3 E 20 28 11 15 1017.4 1013.7 1.8
16/05:00am 19.2 18.1 18.7 97 0.3 E 22 28 12 15 1016.9 1013.2 1.8
16/04:30am 19.4 18.9 19.1 98 0.2 E 20 24 11 13 1016.7 1013.1 1.8
16/04:00am 19.6 18.6 18.9 96 0.4 ENE 22 30 12 16 1016.4 1012.7 1.8
16/03:55am 19.5 18.1 18.8 96 0.4 E 24 32 13 17 1016.4 1012.7 1.8
16/03:30am 19.6 17.7 19.4 99 0.1 E 28 35 15 19 1015.9 1012.2 1.8
16/03:00am 19.6 16.8 19.4 99 0.1 E 33 43 18 23 1015.3 1011.6 1.8
16/02:30am 19.7 17.9 19.5 99 0.1 E 28 35 15 19 1015.5 1011.8 1.8
16/02:00am 19.7 17.9 19.5 99 0.1 E 28 39 15 21 1015.6 1011.9 1.8
16/01:39am 19.7 17.9 19.5 99 0.1 E 28 35 15 19 1015.7 1012.0 1.8
16/01:30am 19.8 18.0 19.6 99 0.1 E 28 35 15 19 1015.8 1012.1 1.8
16/01:20am 19.8 17.2 19.6 99 0.1 E 32 37 17 20 1015.8 1012.1 1.8
16/01:00am 19.9 18.5 19.7 99 0.1 E 26 32 14 17 1016.1 1012.4 1.8
16/12:30am 19.8 18.8 19.6 99 0.1 ESE 24 33 13 18 1016.5 1012.9 1.8
16/12:14am 19.8 19.1 19.6 99 0.1 E 22 30 12 16 1017.0 1013.3 1.8
16/12:00am 20.0 19.8 19.8 99 0.1 E 20 30 11 16 1017.0 1013.3 1.8
 
Date/Time
EST
Temp
°C
App
Temp
°C
Dew
Point
°C
Rel
Hum
%
Delta-T
°C
Wind Press
QNH
hPa
Press
MSL
hPa
Rain since
9am
mm
Dir  Spd
km/h
Gust
km/h
Spd
kts
Gust
kts
15/11:30pm 19.8 19.5 19.6 99 0.1 E 20 26 11 14 1017.1 1013.4 1.8
15/11:00pm 20.0 18.7 19.8 99 0.1 E 26 33 14 18 1017.4 1013.7 1.8
15/10:30pm 20.1 18.8 19.9 99 0.1 E 26 37 14 20 1017.7 1014.0 1.6
15/10:00pm 20.4 18.1 20.2 99 0.1 E 32 43 17 23 1017.6 1013.9 1.0
15/09:48pm 20.7 19.3 20.5 99 0.1 E 28 43 15 23 1017.7 1014.0 0.8
15/09:33pm 21.0 19.0 20.8 99 0.1 E 32 46 17 25 1017.6 1013.9 0.8
15/09:30pm 21.0 18.8 20.8 99 0.1 E 33 46 18 25 1017.6 1013.9 0.8
15/09:09pm 21.4 20.8 21.2 99 0.1 ENE 26 37 14 20 1017.3 1013.6 0.8
15/09:00pm 21.3 20.2 21.1 99 0.1 ENE 28 35 15 19 1016.9 1013.2 0.8
15/08:30pm 21.4 19.4 21.2 99 0.1 E 33 46 18 25 1015.9 1012.2 0.8
15/08:03pm 21.5 19.6 21.3 99 0.1 E 33 44 18 24 1014.9 1011.2 0.8
15/08:00pm 21.5 19.2 21.3 99 0.1 E 35 54 19 29 1014.9 1011.2 0.8
15/07:30pm 22.0 19.4 21.5 97 0.3 E 37 50 20 27 1015.0 1011.3 0.2
15/07:18pm 22.4 19.0 21.4 94 0.7 E 41 54 22 29 1015.0 1011.3 0.0
15/07:15pm 22.6 19.2 21.4 93 0.8 E 41 54 22 29 1015.0 1011.3 0.0
15/07:06pm 22.9 19.3 21.0 89 1.3 E 41 52 22 28 1014.6 1010.9 0.0
15/07:00pm 23.1 20.2 20.8 87 1.5 E 37 54 20 29 1014.5 1010.8 0.0
15/06:55pm 23.1 20.6 20.8 87 1.5 E 35 54 19 29 1014.4 1010.7 0.0
15/06:30pm 23.3 20.8 20.8 86 1.7 E 35 46 19 25 1013.8 1010.1 0.0
15/06:24pm 23.4 21.0 21.1 87 1.5 E 35 50 19 27 1013.8 1010.1 0.0
15/06:00pm 24.7 21.8 20.8 79 2.6 E 37 50 20 27 1013.4 1009.7 0.0
15/05:43pm 26.8 24.4 21.1 71 3.9 E 35 56 19 30 1012.8 1009.1 0.0
15/05:30pm 28.0 26.3 21.3 67 4.6 E 32 46 17 25 1012.4 1008.7 0.0
15/05:00pm 29.2 27.6 20.1 58 6.1 E 28 41 15 22 1012.1 1008.3 0.0
15/04:30pm 28.7 26.7 19.9 59 5.9 E 30 35 16 19 1012.3 1008.5 0.0
15/04:00pm 29.3 27.6 20.5 59 6.0 E 30 37 16 20 1012.3 1008.5 0.0
15/03:30pm 28.8 26.3 18.9 55 6.5 E 30 44 16 24 1012.4 1008.7 0.0
15/03:00pm 28.7 27.4 19.9 59 5.9 ESE 26 37 14 20 1012.6 1008.9 0.0
15/02:30pm 28.1 26.2 20.1 62 5.4 ESE 30 41 16 22 1012.8 1009.1 0.0
15/02:00pm 28.1 27.7 22.3 70 4.0 E 28 39 15 21 1013.1 1009.4 0.0
15/01:30pm 28.3 27.0 22.1 69 4.3 ESE 32 39 17 21 1013.2 1009.5 0.0
15/01:00pm 27.3 27.4 21.1 69 4.2 E 22 32 12 17 1013.9 1010.2 0.0
15/12:30pm 26.8 27.1 21.6 73 3.5 E 22 30 12 16 1013.9 1010.2 0.0
15/12:25pm 27.1 27.7 22.1 74 3.4 E 22 30 12 16 1013.9 1010.2 0.0
15/12:00pm 25.6 26.5 21.9 80 2.5 ESE 20 24 11 13 1014.0 1010.3 0.0
15/11:59am 25.5 26.3 21.8 80 2.5 ESE 20 24 11 13 1014.0 1010.3 0.0
15/11:49am 25.7 26.2 22.0 80 2.5 E 22 28 12 15 1013.9 1010.2 0.0
15/11:39am 25.7 25.9 21.4 77 2.9 E 22 28 12 15 1013.9 1010.2 0.0
15/11:30am 26.3 27.2 21.9 77 3.0 E 20 24 11 13 1014.0 1010.3 0.0
15/11:00am 26.3 27.2 21.5 75 3.3 E 19 26 10 14 1013.8 1010.1 0.0
15/10:30am 25.9 28.1 21.1 75 3.2 ESE 11 15 6 8 1013.9 1010.2 0.0
15/10:00am 24.8 27.0 21.1 80 2.5 ENE 11 17 6 9 1013.6 1009.8 0.0
15/09:30am 23.6 26.2 22.0 91 1.1 NE 11 15 6 8 1013.7 1009.9 0.0
15/09:00am 22.4 24.4 21.6 95 0.5 ENE 13 17 7 9 1013.4 1009.7 0.0
15/08:30am 22.6 23.3 21.2 92 0.9 E 19 24 10 13 1013.4 1009.7 0.0
15/08:00am 22.5 22.1 21.0 91 1.0 E 24 32 13 17 1013.7 1009.9 0.0
15/07:31am 21.7 21.6 21.4 98 0.2 E 24 32 13 17 1013.8 1010.1 0.0
15/07:30am 21.6 21.4 21.3 98 0.2 E 24 32 13 17 1013.8 1010.1 0.0
15/07:00am 21.3 21.8 21.1 99 0.1 E 20 30 11 16 1013.9 1010.2 0.0
15/06:30am 21.7 22.4 21.5 99 0.1 E 20 26 11 14 1013.3 1009.6 0.0
15/06:22am 21.8 22.5 21.5 98 0.2 E 20 32 11 17 1013.1 1009.4 0.0
15/06:17am 21.7 21.7 21.0 96 0.5 E 22 32 12 17 1012.9 1009.2 0.0
15/06:00am 22.8 23.5 19.6 82 2.1 E 15 24 8 13 1012.5 1008.8 0.0
15/05:30am 22.6 25.0 20.9 90 1.1 NNW 9 13 5 7 1012.0 1008.2 0.0
15/05:00am 23.0 25.5 20.3 85 1.8 NE 7 11 4 6 1011.3 1007.6 0.0
15/04:30am 22.3 23.6 20.9 92 0.9 N 15 24 8 13 1011.3 1007.6 0.0
15/04:00am 22.3 24.3 20.0 87 1.5 NNW 9 17 5 9 1010.8 1007.0 0.0
15/03:30am 22.3 23.9 20.0 87 1.5 ENE 11 17 6 9 1010.8 1007.0 0.0
15/03:00am 22.4 21.7 19.6 84 1.8 ESE 22 26 12 14 1011.0 1007.3 0.0
15/02:30am 22.6 22.1 20.7 89 1.3 ESE 24 32 13 17 1011.8 1008.1 0.0
15/02:00am 23.0 23.4 20.9 88 1.4 SSE 20 28 11 15 1012.0 1008.2 0.0
15/01:30am 23.8 24.8 21.1 85 1.8 SW 17 20 9 11 1011.5 1007.8 0.0
15/01:00am 23.7 25.7 20.8 84 1.9 W 11 17 6 9 1012.0 1008.2 0.0
15/12:30am 24.3 26.6 20.6 80 2.5 N 9 11 5 6 1011.8 1008.1 0.0
15/12:00am 24.7 26.1 20.4 77 2.9 NW 13 19 7 10 1011.7 1008.0 0.0
 
Date/Time
EST
Temp
°C
App
Temp
°C
Dew
Point
°C
Rel
Hum
%
Delta-T
°C
Wind Press
QNH
hPa
Press
MSL
hPa
Rain since
9am
mm
Dir  Spd
km/h
Gust
km/h
Spd
kts
Gust
kts
14/11:30pm 26.2 27.1 20.1 69 4.1 NNW 15 22 8 12 1012.0 1008.2 0.0
14/11:00pm 26.2 28.8 22.7 81 2.4 E 13 19 7 10 1011.5 1007.8 0.0
14/10:30pm 26.2 28.5 22.7 81 2.4 ESE 15 20 8 11 1011.7 1008.0 0.0
14/10:00pm 26.5 27.9 22.8 80 2.6 ENE 20 26 11 14 1011.0 1007.3 0.0
14/09:30pm 26.9 27.7 22.5 77 3.0 E 22 28 12 15 1010.8 1007.0 0.0
14/09:00pm 27.5 28.0 22.7 75 3.3 E 24 32 13 17 1010.4 1006.6 0.0
14/08:30pm 28.4 29.2 22.4 70 4.2 E 22 33 12 18 1009.9 1006.2 0.0
14/08:00pm 29.2 29.5 22.2 66 4.8 E 24 30 13 16 1009.9 1006.2 0.0
14/07:30pm 29.8 29.6 22.0 63 5.4 E 26 33 14 18 1009.9 1006.2 0.0
14/07:00pm 30.6 30.1 21.4 58 6.3 E 26 35 14 19 1009.4 1005.6 0.0
14/06:30pm 32.6 32.6 17.2 39 10.1 NE 13 17 7 9 1009.0 1005.2 0.0
14/06:00pm 33.4 33.2 16.7 36 10.9 ENE 13 17 7 9 1008.8 1005.0 0.0
14/05:30pm 34.0 33.5 16.8 35 11.2 E 15 19 8 10 1008.2 1004.5 0.0
14/05:00pm 34.3 33.1 17.1 36 11.3 ENE 19 26 10 14 1007.8 1004.0 0.0
14/04:30pm 35.7 35.6 14.9 29 13.3 NW 9 19 5 10 1008.0 1004.2 0.0
14/04:00pm 35.3 34.7 14.6 29 13.2 N 11 22 6 12 1008.1 1004.4 0.0
14/03:30pm 35.7 36.1 16.4 31 12.6 NNW 9 17 5 9 1008.8 1005.0 0.0
14/03:00pm 35.5 35.0 15.8 31 12.7 WNW 13 20 7 11 1009.4 1005.6 0.0

Latest Capital City Observations: Canberra | Sydney | Melbourne | Brisbane | Adelaide | Perth | Hobart | Darwin

Other Formats:

Comma delimited format used in spreadsheet applications
http://www.bom.gov.au/fwo/IDQ60901/IDQ60901.95551.axf

JavaScript Object Notation format (JSON) in row-major order
http://www.bom.gov.au/fwo/IDQ60901/IDQ60901.95551.json